Impacts METAR Board
IDs:

KATT - Austin/Camp Mabry(NG, TX, US

Updated at: 0100 UTC 01 Nov 2020
Potential Impact None Slight Moderate High
Time 31/13Z 31/14Z 31/15Z 31/16Z 31/17Z 31/18Z 31/19Z 31/20Z 31/21Z 31/22Z 31/23Z 01/00Z 01/01Z
Temp42 46 55 63 69 73 74 76 79 77 75 69 64
Dewpt37 41 38 41 40 39 38 38 39 38 38 39 42
Altim30.23 30.24 30.25 30.25 30.23 30.21 30.17 30.14 30.11 30.09 30.10 30.11 30.13
VIS10 10 10 10 10 10 10 10 10 10 10 10 10
CIG-- -- -- -- -- -- -- -- -- -- -- -- --
CoverCLRCLRCLRCLRCLRCLRCLRCLRCLRCLRCLRCLRCLR
FltCatVFRVFRVFRVFRVFRVFRVFRVFRVFRVFRVFRVFRVFR
WX--------------------------
WDir0000000017017020000
WSpd0 0 0 0 3 6 6 5 6 6 3 0 0
WGst-- -- -- -- -- -- -- -- -- -- -- -- --
Raw hourly METARs
KATT 311251Z AUTO 00000KT 10SM CLR 06/03 A3023 RMK AO2 SLP236 T00560028
KATT 311351Z AUTO 00000KT 10SM CLR 08/05 A3024 RMK AO2 SLP240 T00780050
KATT 311451Z AUTO 00000KT 10SM CLR 13/03 A3025 RMK AO2 SLP244 T01280033 53009
KATT 311551Z AUTO 00000KT 10SM CLR 17/05 A3025 RMK AO2 SLP240 T01720050
KATT 311651Z AUTO VRB03KT 10SM CLR 21/04 A3023 RMK AO2 SLP234 T02060044
KATT 311751Z AUTO VRB06KT 10SM CLR 23/04 A3021 RMK AO2 SLP226 T02280039 10228 20050 58015
KATT 311851Z AUTO VRB06KT 10SM CLR 23/03 A3017 RMK AO2 SLP212 T02330033
KATT 311951Z AUTO VRB05KT 10SM CLR 24/03 A3014 RMK AO2 SLP202 T02440033
KATT 312051Z AUTO 17006KT 10SM CLR 26/04 A3011 RMK AO2 SLP190 T02610039 56034
KATT 312151Z AUTO 17006KT 10SM CLR 25/03 A3009 RMK AO2 SLP187 T02500033
KATT 312251Z AUTO 20003KT 10SM CLR 24/03 A3010 RMK AO2 SLP189 T02390033
KATT 312351Z AUTO 00000KT 10SM CLR 21/04 A3011 RMK AO2 SLP195 T02060039 10261 20206 53002
KATT 010051Z AUTO 00000KT 10SM CLR 18/06 A3013 RMK AO2 SLP202 T01780056